Schedule Details


Flight Number: CTN412
Departure: Kastela (LDSP) at 14:45
Arrival: Frankfurt/main (EDDF) at 16:35
Route: ZDA DCT BUSET DCT VEKEN DCT ERKIR UQ863 TEKSI/N0450F300 UQ863 ETASA T163 PSA

Weather Information
LDSP 251700Z 09005KT 060V120 9999 VCTS FEW040 FEW050CB 29/20 Q1015 TEMPO 05015KT TSRA
EDDF 251720Z 23004KT 200V290 9999 FEW070CB 30/14 Q1018 NOSIG
Schedule Frequency

Route Map